Time;durP1;ratioP1;P1;durP2;ratioP2;P2;SDS_P1;SDS_P2;PMS_P1;PMS_P2;Temp;Humidity;BMP_temperature;BMP_pressure;BME280_temperature;BME280_humidity;BME280_pressure;Samples;Min_cycle;Max_cycle;Signal;HPM_P1;HPM_P2
2022/08/11 00:00:11;;;;;;;7.63;5.35;;;17.10;99.90;;;;;;5013376;28;20073;-79
2022/08/11 00:02:51;;;;;;;6.80;6.20;;;17.10;99.90;;;;;;4994221;28;20641;-79
2022/08/11 00:05:20;;;;;;;8.73;6.10;;;17.10;99.90;;;;;;4988899;28;20061;-79
2022/08/11 00:07:55;;;;;;;7.05;6.35;;;17.00;99.90;;;;;;5003638;28;20105;-79
2022/08/11 00:10:27;;;;;;;7.05;5.95;;;17.00;99.90;;;;;;5003359;28;20070;-79
2022/08/11 00:13:01;;;;;;;7.07;6.38;;;16.90;99.90;;;;;;5012578;28;20042;-80
2022/08/11 00:15:40;;;;;;;8.60;6.40;;;16.90;99.90;;;;;;4992771;28;20181;-80
2022/08/11 00:22:21;;;;;;;7.07;5.95;;;16.80;99.90;;;;;;5188910;22;20365;-79
2022/08/11 00:24:48;;;;;;;7.65;6.65;;;16.80;99.90;;;;;;4937081;28;20139;-80
2022/08/11 00:27:14;;;;;;;7.80;6.57;;;16.70;99.90;;;;;;4950709;28;20424;-79
2022/08/11 00:29:40;;;;;;;8.38;6.40;;;16.70;99.90;;;;;;4948945;28;20051;-80
2022/08/11 00:32:14;;;;;;;7.43;6.68;;;16.70;99.90;;;;;;4928321;28;20051;-79
2022/08/11 00:34:47;;;;;;;9.18;7.18;;;16.70;99.90;;;;;;4938356;28;20032;-79
2022/08/11 00:37:20;;;;;;;9.23;7.55;;;16.60;99.90;;;;;;4935680;28;20063;-79
2022/08/11 00:39:49;;;;;;;8.05;6.88;;;16.60;99.90;;;;;;4940050;28;20035;-79
2022/08/11 00:42:44;;;;;;;9.48;8.07;;;16.60;99.90;;;;;;4926064;28;20051;-79
2022/08/11 00:45:19;;;;;;;8.73;7.82;;;16.50;99.90;;;;;;4940642;28;20055;-79
2022/08/11 00:48:04;;;;;;;8.93;7.97;;;16.50;99.90;;;;;;4938579;28;20075;-79
2022/08/11 00:50:54;;;;;;;8.50;7.70;;;16.50;99.90;;;;;;4940227;28;20039;-79
2022/08/11 00:53:58;;;;;;;8.75;7.85;;;16.50;99.90;;;;;;4932404;28;20506;-79
2022/08/11 00:56:59;;;;;;;10.82;8.07;;;16.50;99.90;;;;;;4897044;29;20119;-79
2022/08/11 00:59:34;;;;;;;9.57;8.45;;;16.50;99.90;;;;;;4897337;28;20051;-79
2022/08/11 01:02:16;;;;;;;11.20;8.65;;;16.40;99.90;;;;;;4911460;28;20074;-78
2022/08/11 01:04:44;;;;;;;9.60;8.75;;;16.40;99.90;;;;;;4921262;29;20046;-79
2022/08/11 01:07:25;;;;;;;10.02;9.02;;;16.40;99.90;;;;;;4939012;28;20051;-80
2022/08/11 01:09:51;;;;;;;9.23;8.25;;;16.40;99.90;;;;;;4927710;29;20058;-79
2022/08/11 01:12:41;;;;;;;10.55;8.75;;;16.40;99.90;;;;;;4941176;29;20330;-79
2022/08/11 01:15:28;;;;;;;10.07;8.95;;;16.40;99.90;;;;;;4942892;28;20047;-80
2022/08/11 01:18:16;;;;;;;10.00;8.80;;;16.40;99.90;;;;;;4943559;28;20058;-79
2022/08/11 01:21:10;;;;;;;9.82;8.77;;;16.30;99.90;;;;;;4934923;28;20043;-79
2022/08/11 01:23:46;;;;;;;9.27;8.25;;;16.40;99.90;;;;;;4923686;29;20059;-80
2022/08/11 01:26:27;;;;;;;9.90;8.93;;;16.40;99.90;;;;;;4940656;28;20039;-80
2022/08/11 01:29:30;;;;;;;9.95;8.93;;;16.40;99.90;;;;;;4958500;28;20495;-79
2022/08/11 01:32:18;;;;;;;9.93;9.00;;;16.30;99.90;;;;;;4941842;28;20154;-81
2022/08/11 01:35:25;;;;;;;11.52;9.75;;;16.30;99.90;;;;;;4942391;28;20538;-79
2022/08/11 01:38:39;;;;;;;11.20;10.15;;;16.30;99.90;;;;;;4864293;29;20545;-79
2022/08/11 01:41:19;;;;;;;11.00;9.82;;;16.30;99.90;;;;;;4817288;29;20061;-79
2022/08/11 01:44:37;;;;;;;11.80;10.43;;;16.30;99.90;;;;;;4948638;28;20063;-79
2022/08/11 01:50:14;;;;;;;11.90;9.85;;;16.30;99.90;;;;;;4942974;28;20078;-79
2022/08/11 01:53:04;;;;;;;10.88;9.75;;;16.30;99.90;;;;;;4955220;28;20043;-79
2022/08/11 01:55:42;;;;;;;12.30;9.98;;;16.20;99.90;;;;;;4942675;28;20086;-79
2022/08/11 01:58:22;;;;;;;11.15;10.05;;;16.20;99.90;;;;;;4955440;28;20055;-80
2022/08/11 02:01:10;;;;;;;10.05;9.13;;;16.20;99.90;;;;;;4958748;28;20507;-79
2022/08/11 02:04:06;;;;;;;10.95;9.55;;;16.10;99.90;;;;;;4958314;28;20570;-79
2022/08/11 02:06:58;;;;;;;10.30;9.18;;;16.10;99.90;;;;;;4958981;28;20110;-79
2022/08/11 02:09:45;;;;;;;11.32;10.18;;;16.10;99.90;;;;;;4943709;29;20110;-79
2022/08/11 02:12:31;;;;;;;9.45;8.45;;;16.00;99.90;;;;;;4941024;29;20035;-79
2022/08/11 02:15:33;;;;;;;12.15;10.88;;;16.00;99.90;;;;;;4937940;29;20585;-79
2022/08/11 02:18:17;;;;;;;10.48;8.88;;;16.00;99.90;;;;;;4877795;28;20130;-78
2022/08/11 02:23:58;;;;;;;12.25;11.05;;;16.00;99.90;;;;;;4957141;28;20061;-79
2022/08/11 02:26:27;;;;;;;10.15;8.77;;;16.00;99.90;;;;;;4958658;28;20047;-79
2022/08/11 02:29:09;;;;;;;11.43;9.80;;;16.00;99.90;;;;;;4957526;28;20051;-79
2022/08/11 02:34:55;;;;;;;12.57;11.27;;;16.00;99.90;;;;;;4941994;28;20171;-79
2022/08/11 02:37:47;;;;;;;14.57;11.80;;;15.90;99.90;;;;;;4935317;28;20092;-78
2022/08/11 02:40:41;;;;;;;12.82;10.98;;;15.90;99.90;;;;;;4929466;29;20747;-79
2022/08/11 02:43:18;;;;;;;12.05;10.85;;;15.90;99.90;;;;;;4947628;28;20054;-79
2022/08/11 02:45:59;;;;;;;12.18;10.77;;;16.00;99.90;;;;;;4942613;28;20047;-79
2022/08/11 02:52:25;;;;;;;12.45;11.27;;;16.00;99.90;;;;;;4907703;29;20039;-78
2022/08/11 02:55:06;;;;;;;13.38;12.10;;;16.00;99.90;;;;;;4932799;28;20106;-79
2022/08/11 02:57:36;;;;;;;14.15;12.80;;;16.00;99.90;;;;;;4960339;28;20053;-79
2022/08/11 03:00:13;;;;;;;13.30;11.82;;;16.00;99.90;;;;;;4930629;28;20040;-79
2022/08/11 03:02:51;;;;;;;13.10;11.80;;;16.00;99.90;;;;;;4917141;29;20068;-79
2022/08/11 03:05:27;;;;;;;14.00;12.02;;;16.00;99.90;;;;;;4942861;28;20055;-79
2022/08/11 03:08:14;;;;;;;14.65;12.82;;;16.00;99.90;;;;;;4951311;28;20495;-78
2022/08/11 03:17:27;;;;;;;15.55;13.63;;;15.90;99.90;;;;;;4960972;28;20413;-79
2022/08/11 03:20:22;;;;;;;14.13;12.68;;;15.90;99.90;;;;;;4960844;28;20055;-79
2022/08/11 03:23:07;;;;;;;14.30;12.80;;;15.90;99.90;;;;;;4934295;28;20166;-79
2022/08/11 03:26:04;;;;;;;16.00;14.30;;;15.80;99.90;;;;;;4937868;28;20055;-79
2022/08/11 03:28:50;;;;;;;16.33;14.68;;;15.80;99.90;;;;;;4942806;28;20104;-79
2022/08/11 03:31:28;;;;;;;18.83;16.85;;;15.80;99.90;;;;;;4915244;29;20363;-80
2022/08/11 03:34:02;;;;;;;17.02;15.27;;;15.80;99.90;;;;;;4916992;28;20055;-79
2022/08/11 03:36:45;;;;;;;19.02;17.23;;;15.80;99.90;;;;;;4946529;28;20048;-80
2022/08/11 03:39:33;;;;;;;19.23;15.95;;;15.80;99.90;;;;;;4936707;29;20055;-79
2022/08/11 03:42:36;;;;;;;16.42;14.63;;;15.80;99.90;;;;;;4961401;28;20047;-79
2022/08/11 03:45:27;;;;;;;17.95;16.15;;;15.80;99.90;;;;;;4951423;28;20447;-79
2022/08/11 03:48:06;;;;;;;16.27;14.57;;;15.80;99.90;;;;;;4947250;28;20640;-78
2022/08/11 03:50:56;;;;;;;20.30;18.10;;;15.70;99.90;;;;;;4949574;28;20052;-78
2022/08/11 03:53:46;;;;;;;18.00;16.20;;;15.70;99.90;;;;;;4922560;28;20060;-79
2022/08/11 03:56:19;;;;;;;22.25;18.45;;;15.70;99.90;;;;;;4945237;28;20035;-78
2022/08/11 03:59:23;;;;;;;19.00;17.00;;;15.70;99.90;;;;;;4931914;28;20051;-78
2022/08/11 04:02:14;;;;;;;18.30;16.60;;;15.70;99.90;;;;;;4935740;28;20138;-78
2022/08/11 04:05:16;;;;;;;19.35;17.20;;;15.70;99.90;;;;;;4923000;28;20052;-79
2022/08/11 04:08:07;;;;;;;20.42;18.30;;;15.70;99.90;;;;;;4947501;28;20055;-79
2022/08/11 04:10:58;;;;;;;17.35;15.65;;;15.70;99.90;;;;;;4933949;28;20094;-79
2022/08/11 04:13:45;;;;;;;20.15;17.92;;;15.70;99.90;;;;;;4923749;28;20083;-79
2022/08/11 04:16:33;;;;;;;19.95;18.08;;;15.70;99.90;;;;;;4923154;28;20484;-79
2022/08/11 04:19:33;;;;;;;18.63;16.83;;;15.70;99.90;;;;;;4934255;28;20044;-78
2022/08/11 04:22:41;;;;;;;20.63;17.77;;;15.70;99.90;;;;;;4921131;28;20060;-79
2022/08/11 04:25:14;;;;;;;19.27;17.30;;;15.70;99.90;;;;;;4898327;29;20059;-78
2022/08/11 04:28:01;;;;;;;23.67;21.17;;;15.70;99.90;;;;;;4923948;28;20052;-78
2022/08/11 04:30:52;;;;;;;20.15;18.05;;;15.60;99.90;;;;;;4934613;28;20051;-79
2022/08/11 04:33:36;;;;;;;21.75;19.52;;;15.60;99.90;;;;;;4920369;28;20408;-79
2022/08/11 04:36:17;;;;;;;23.65;21.15;;;15.60;99.90;;;;;;4921530;28;20091;-78
2022/08/11 04:39:07;;;;;;;23.17;20.75;;;15.60;99.90;;;;;;4922033;28;20406;-79
2022/08/11 04:45:10;;;;;;;24.60;21.85;;;15.70;99.90;;;;;;4937458;28;20064;-79
2022/08/11 05:03:30;;;;;;;21.02;18.83;;;15.80;99.90;;;;;;4909102;29;20051;-78
2022/08/11 05:06:33;;;;;;;20.75;18.65;;;15.80;99.90;;;;;;4937035;28;20063;-78
2022/08/11 05:09:20;;;;;;;21.50;19.25;;;15.90;99.90;;;;;;4924127;28;20059;-78
2022/08/11 05:12:01;;;;;;;23.42;21.02;;;15.90;99.90;;;;;;4931821;28;21260;-78
2022/08/11 05:34:53;;;;;;;19.85;17.95;;;16.30;99.90;;;;;;5107817;27;20699;-79
2022/08/11 05:37:28;;;;;;;20.50;18.52;;;16.40;99.90;;;;;;5115319;27;20049;-79
2022/08/11 05:57:29;;;;;;;16.35;14.75;;;16.80;99.90;;;;;;5129195;27;20050;-79
2022/08/11 06:00:03;;;;;;;17.35;15.55;;;16.90;99.90;;;;;;5131059;27;20640;-78
2022/08/11 06:02:30;;;;;;;15.13;13.73;;;17.00;99.90;;;;;;5115656;27;20062;-79
2022/08/11 06:05:00;;;;;;;16.55;14.85;;;17.00;99.90;;;;;;5131522;27;20557;-79
2022/08/11 06:07:29;;;;;;;16.10;14.30;;;17.10;99.90;;;;;;5115209;27;20046;-79
2022/08/11 06:09:55;;;;;;;15.23;13.10;;;17.20;99.90;;;;;;5112738;27;20049;-78
2022/08/11 06:12:22;;;;;;;15.65;14.05;;;17.30;99.90;;;;;;5100645;27;20078;-79
2022/08/11 06:14:56;;;;;;;14.07;12.48;;;17.30;99.90;;;;;;5102857;27;20465;-79
2022/08/11 06:17:25;;;;;;;13.63;12.23;;;17.40;99.90;;;;;;5132191;27;20536;-79
2022/08/11 06:19:57;;;;;;;12.27;11.02;;;17.50;99.90;;;;;;5112506;27;20448;-79
2022/08/11 06:22:24;;;;;;;12.18;10.98;;;17.60;99.90;;;;;;5114170;27;20147;-78
2022/08/11 06:24:57;;;;;;;12.60;11.30;;;17.70;99.90;;;;;;5113267;27;20414;-79
2022/08/11 06:27:29;;;;;;;11.35;10.15;;;17.80;99.90;;;;;;5131462;27;20104;-79
2022/08/11 06:29:55;;;;;;;10.88;9.73;;;17.90;99.90;;;;;;5112913;27;20769;-79
2022/08/11 06:32:34;;;;;;;12.13;9.57;;;17.90;99.90;;;;;;5114726;27;20066;-79
2022/08/11 06:35:06;;;;;;;12.20;10.30;;;18.00;99.90;;;;;;5128885;27;20149;-79
2022/08/11 06:37:54;;;;;;;10.65;8.80;;;18.20;99.90;;;;;;5112981;27;20042;-79
2022/08/11 06:41:29;;;;;;;10.77;8.93;;;18.20;99.90;;;;;;5130555;27;20053;-79
2022/08/11 06:44:09;;;;;;;10.60;8.38;;;18.40;99.90;;;;;;5117271;27;20039;-79
2022/08/11 06:46:43;;;;;;;10.48;8.05;;;18.50;99.90;;;;;;5097884;27;20050;-79
2022/08/11 06:52:03;;;;;;;8.40;6.80;;;18.70;99.90;;;;;;5116880;27;20046;-79
2022/08/11 06:54:33;;;;;;;8.98;6.45;;;18.80;99.90;;;;;;5114966;27;20038;-79
2022/08/11 07:03:02;;;;;;;7.10;5.65;;;19.20;99.90;;;;;;5117423;27;20077;-79
2022/08/11 07:05:42;;;;;;;8.00;5.20;;;19.40;99.90;;;;;;5114797;27;20061;-79
2022/08/11 07:17:21;;;;;;;18.05;4.68;;;20.00;99.90;;;;;;5092140;27;20063;-78
2022/08/11 07:28:57;;;;;;;3.97;2.70;;;20.70;99.90;;;;;;5090910;27;20134;-79
2022/08/11 07:31:25;;;;;;;5.00;3.10;;;20.90;99.90;;;;;;5115349;27;20058;-78
2022/08/11 07:34:00;;;;;;;4.45;2.92;;;21.10;99.90;;;;;;5115337;27;20058;-79
2022/08/11 07:36:29;;;;;;;5.30;2.50;;;21.30;99.90;;;;;;5085892;27;20046;-77
2022/08/11 07:38:56;;;;;;;3.80;2.28;;;21.50;99.90;;;;;;5114982;27;20046;-79
2022/08/11 07:41:23;;;;;;;4.22;2.20;;;21.70;99.90;;;;;;5088257;27;20046;-77
2022/08/11 07:43:54;;;;;;;4.20;2.47;;;21.90;99.90;;;;;;5099669;27;20161;-78
2022/08/11 07:54:39;;;;;;;5.45;2.08;;;22.50;99.90;;;;;;5114852;27;20145;-79
2022/08/11 08:19:20;;;;;;;3.72;1.90;;;24.00;99.90;;;;;;5115512;27;20149;-78
2022/08/11 08:21:46;;;;;;;4.15;1.58;;;24.10;99.90;;;;;;5080533;27;20046;-79
2022/08/11 08:24:13;;;;;;;3.05;1.98;;;24.30;99.90;;;;;;5086723;27;20332;-78
2022/08/11 08:26:57;;;;;;;3.95;1.60;;;24.50;99.90;;;;;;5096175;27;20497;-78
2022/08/11 08:32:10;;;;;;;4.20;1.42;;;24.70;99.90;;;;;;5109009;27;20095;-78
2022/08/11 08:34:42;;;;;;;6.78;1.60;;;24.90;99.90;;;;;;5093182;27;20497;-77
2022/08/11 08:37:08;;;;;;;6.63;1.75;;;25.10;98.20;;;;;;5094674;27;20040;-78
2022/08/11 08:39:38;;;;;;;5.50;1.73;;;25.30;96.50;;;;;;5096647;27;20111;-77
2022/08/11 08:42:11;;;;;;;;;;;25.50;94.70;;;;;;5078488;27;20476;-77
2022/08/11 08:44:43;;;;;;;2.25;1.55;;;25.60;92.30;;;;;;5092597;27;19949;-77
2022/08/11 08:47:15;;;;;;;3.03;1.50;;;25.70;93.80;;;;;;5110365;27;20458;-77
2022/08/11 08:49:48;;;;;;;5.82;1.70;;;25.80;93.50;;;;;;5112028;27;20043;-77
2022/08/11 08:52:17;;;;;;;4.32;1.92;;;26.00;93.40;;;;;;5110123;27;20792;-76
2022/08/11 08:54:44;;;;;;;1.85;1.40;;;26.10;92.10;;;;;;5095265;27;20412;-77
2022/08/11 08:57:12;;;;;;;3.95;1.30;;;26.20;89.70;;;;;;5111444;27;20050;-77
2022/08/11 08:59:45;;;;;;;2.95;1.55;;;26.30;85.50;;;;;;5110147;27;20864;-77
2022/08/11 09:02:12;;;;;;;8.25;1.80;;;26.40;83.50;;;;;;5109004;27;20096;-77
2022/08/11 09:04:39;;;;;;;2.80;2.08;;;26.50;83.20;;;;;;5111463;27;20050;-77
2022/08/11 09:07:15;;;;;;;2.83;1.23;;;26.70;82.00;;;;;;5093015;27;20077;-77
2022/08/11 09:09:47;;;;;;;3.83;1.60;;;26.80;80.30;;;;;;5109689;27;20134;-76
2022/08/11 09:12:13;;;;;;;4.70;2.10;;;26.90;79.80;;;;;;5110036;27;20054;-76
2022/08/11 09:15:02;;;;;;;2.42;1.50;;;27.00;71.10;;;;;;5107127;27;20059;-77
2022/08/11 09:17:41;;;;;;;5.25;2.25;;;27.10;72.20;;;;;;5110226;27;20223;-76
2022/08/11 09:20:23;;;;;;;2.58;1.70;;;27.20;70.10;;;;;;5093171;27;20092;-77
2022/08/11 09:28:28;;;;;;;6.30;1.88;;;27.50;66.10;;;;;;5091395;28;19927;-77
2022/08/11 09:30:55;;;;;;;3.97;2.20;;;27.60;63.90;;;;;;5107358;28;20115;-76
2022/08/11 09:33:23;;;;;;;3.25;2.00;;;27.70;61.80;;;;;;5108618;28;20078;-77
2022/08/11 09:35:51;;;;;;;4.57;1.98;;;27.70;63.20;;;;;;5095928;28;20047;-78
2022/08/11 09:41:08;;;;;;;3.40;2.00;;;27.90;58.10;;;;;;5111281;28;20055;-77
2022/08/11 09:46:29;;;;;;;4.50;2.00;;;28.00;59.60;;;;;;5110216;28;20410;-76
2022/08/11 09:48:59;;;;;;;5.63;1.85;;;28.10;59.90;;;;;;5078164;28;20035;-76
2022/08/11 09:51:30;;;;;;;7.13;1.67;;;28.20;58.90;;;;;;5107616;28;20050;-76
2022/08/11 09:53:58;;;;;;;4.93;1.98;;;28.30;56.20;;;;;;5111573;28;20056;-78
2022/08/11 09:59:12;;;;;;;5.20;1.50;;;28.30;56.40;;;;;;5108549;28;20047;-78
2022/08/11 10:01:44;;;;;;;3.38;1.50;;;28.30;55.10;;;;;;5111053;28;20138;-76
2022/08/11 10:04:30;;;;;;;3.38;1.70;;;28.30;54.90;;;;;;5093351;28;20039;-76
2022/08/11 10:07:01;;;;;;;3.47;1.70;;;28.50;54.90;;;;;;5103848;28;21041;-77
2022/08/11 10:09:32;;;;;;;5.72;1.67;;;28.50;54.40;;;;;;5093025;27;20101;-78
2022/08/11 10:12:02;;;;;;;3.90;1.67;;;28.60;55.60;;;;;;5106032;27;20043;-74
2022/08/11 10:17:17;;;;;;;5.32;2.00;;;28.80;53.40;;;;;;5104428;27;20073;-77
2022/08/11 10:19:46;;;;;;;6.65;1.77;;;29.00;53.00;;;;;;5091981;27;20039;-75
2022/08/11 10:27:47;;;;;;;3.55;1.70;;;29.20;52.40;;;;;;5099733;27;20038;-78
2022/08/11 10:35:44;;;;;;;3.15;1.48;;;29.40;51.00;;;;;;5118437;27;20581;-75
2022/08/11 10:38:14;;;;;;;2.67;1.50;;;29.30;51.40;;;;;;5090994;27;20054;-76
2022/08/11 10:40:45;;;;;;;4.43;1.88;;;29.30;51.00;;;;;;5101479;27;20090;-75
2022/08/11 10:43:12;;;;;;;4.28;1.35;;;29.30;49.80;;;;;;5119643;27;20046;-76
2022/08/11 10:48:28;;;;;;;2.88;1.40;;;29.50;49.90;;;;;;5121132;27;20134;-76
2022/08/11 10:51:13;;;;;;;5.20;1.60;;;29.40;49.20;;;;;;5120376;27;20027;-75
2022/08/11 10:59:26;;;;;;;3.40;1.38;;;29.50;50.00;;;;;;5116562;27;20107;-78
2022/08/11 11:01:53;;;;;;;2.42;1.40;;;29.60;49.20;;;;;;5098503;27;20828;-78
2022/08/11 11:04:38;;;;;;;2.63;1.63;;;29.80;50.40;;;;;;5101483;27;20047;-78
2022/08/11 11:07:15;;;;;;;3.55;1.60;;;29.90;48.60;;;;;;5103929;27;20070;-78
2022/08/11 11:09:48;;;;;;;2.97;1.33;;;30.00;48.20;;;;;;5091622;27;20047;-77
2022/08/11 11:18:11;;;;;;;3.55;1.50;;;30.00;48.40;;;;;;5119183;27;20043;-76
2022/08/11 11:20:44;;;;;;;3.83;1.60;;;30.00;47.30;;;;;;5100917;27;21245;-79
2022/08/11 11:23:17;;;;;;;3.42;1.52;;;29.90;47.40;;;;;;5116930;27;20042;-79
2022/08/11 11:26:05;;;;;;;2.70;1.08;;;30.00;48.00;;;;;;5117728;27;20103;-79
2022/08/11 11:28:59;;;;;;;6.03;1.60;;;30.10;47.80;;;;;;5095497;27;20091;-80
2022/08/11 11:31:52;;;;;;;3.78;1.55;;;30.10;46.90;;;;;;5114337;27;20063;-79
2022/08/11 11:35:01;;;;;;;3.88;1.40;;;30.10;47.00;;;;;;5108292;27;20386;-78
2022/08/11 11:37:29;;;;;;;;;;;30.20;46.10;;;;;;5121431;27;20394;-79
2022/08/11 11:39:56;;;;;;;2.40;1.10;;;30.40;47.30;;;;;;5121704;27;19926;-76
2022/08/11 11:42:23;;;;;;;3.22;1.23;;;30.40;43.40;;;;;;5073170;27;20043;-75
2022/08/11 11:44:49;;;;;;;2.45;1.13;;;30.30;43.70;;;;;;5121659;27;20043;-79
2022/08/11 11:47:18;;;;;;;3.60;1.70;;;30.40;43.90;;;;;;5083446;27;20074;-80
2022/08/11 11:49:45;;;;;;;;;;;30.40;44.10;;;;;;5091136;27;20036;-80
2022/08/11 11:52:19;;;;;;;1.88;1.40;;;30.40;44.80;;;;;;5119542;27;19984;-80
2022/08/11 11:54:50;;;;;;;4.05;1.40;;;30.40;45.50;;;;;;5111542;27;20031;-80
2022/08/11 12:02:50;;;;;;;2.72;1.52;;;30.80;45.30;;;;;;5114482;27;20143;-77
2022/08/11 12:05:17;;;;;;;4.78;1.40;;;30.80;45.90;;;;;;5097562;27;20058;-77
2022/08/11 12:10:38;;;;;;;2.45;1.20;;;30.80;42.60;;;;;;5101036;27;20043;-76
2022/08/11 12:15:53;;;;;;;1.83;1.20;;;30.60;42.00;;;;;;5092138;27;20110;-79
2022/08/11 12:18:19;;;;;;;3.00;1.35;;;30.60;42.70;;;;;;5098116;27;20050;-78
2022/08/11 12:20:45;;;;;;;3.25;1.27;;;30.60;43.20;;;;;;5064084;27;20078;-78
2022/08/11 12:28:45;;;;;;;3.85;1.13;;;30.70;44.60;;;;;;5090372;27;20223;-77
2022/08/11 12:31:14;;;;;;;4.50;1.10;;;30.70;44.30;;;;;;5112997;27;20679;-76
2022/08/11 12:33:40;;;;;;;4.18;0.90;;;30.70;43.10;;;;;;5095692;27;20043;-75
2022/08/11 12:36:14;;;;;;;3.15;1.30;;;30.80;44.00;;;;;;5096595;27;20047;-75
2022/08/11 12:38:47;;;;;;;3.67;1.35;;;30.90;43.30;;;;;;5113639;27;20462;-75
2022/08/11 12:46:45;;;;;;;2.95;1.30;;;31.10;42.80;;;;;;5100761;27;20051;-79
2022/08/11 12:52:11;;;;;;;2.90;1.30;;;31.00;43.30;;;;;;5114577;27;20036;-78
2022/08/11 12:54:46;;;;;;;3.88;1.25;;;31.00;43.60;;;;;;5097813;27;20073;-74
2022/08/11 13:05:58;;;;;;;4.05;1.60;;;31.30;43.30;;;;;;5114633;27;20535;-78
2022/08/11 13:08:25;;;;;;;3.38;1.67;;;31.30;43.40;;;;;;5112516;27;20661;-78
2022/08/11 13:13:41;;;;;;;3.65;1.50;;;31.40;44.00;;;;;;5113317;27;20086;-79
2022/08/11 13:16:07;;;;;;;;;;;31.50;42.50;;;;;;5095360;28;20054;-77
2022/08/11 13:18:33;;;;;;;2.83;1.30;;;31.50;45.10;;;;;;5108221;27;19919;-78
2022/08/11 13:21:00;;;;;;;2.63;1.13;;;31.50;42.50;;;;;;5112326;27;20046;-74
2022/08/11 13:23:28;;;;;;;3.22;1.33;;;31.40;42.90;;;;;;5096537;28;20933;-75
2022/08/11 13:25:55;;;;;;;3.15;1.30;;;31.50;44.00;;;;;;5094519;27;20671;-79
2022/08/11 13:28:24;;;;;;;3.47;1.45;;;31.60;43.80;;;;;;5110295;27;20727;-79
2022/08/11 13:33:51;;;;;;;3.15;1.52;;;31.60;44.30;;;;;;5076214;28;20529;-75
2022/08/11 13:36:24;;;;;;;5.15;1.60;;;31.60;42.70;;;;;;5082794;28;20054;-73
2022/08/11 13:38:52;;;;;;;3.17;1.83;;;31.60;42.70;;;;;;5113480;28;20917;-74
2022/08/11 13:41:37;;;;;;;3.05;1.40;;;31.60;43.00;;;;;;5092983;28;20049;-79
2022/08/11 13:44:07;;;;;;;3.95;1.30;;;31.60;42.50;;;;;;5109425;28;20052;-78
2022/08/11 13:46:34;;;;;;;3.63;1.33;;;31.50;42.90;;;;;;5077359;28;20038;-75
2022/08/11 13:49:05;;;;;;;5.07;1.40;;;31.40;42.10;;;;;;5081027;28;20070;-75
2022/08/11 13:51:34;;;;;;;4.00;1.80;;;31.30;41.90;;;;;;5128737;27;20175;-75
2022/08/11 13:54:09;;;;;;;3.88;1.70;;;31.20;42.70;;;;;;5084778;27;20110;-75
2022/08/11 13:56:42;;;;;;;3.58;1.50;;;31.20;43.80;;;;;;5118141;27;20035;-74
2022/08/11 13:59:11;;;;;;;3.67;1.27;;;31.30;43.60;;;;;;5097833;27;20043;-76
2022/08/11 14:01:40;;;;;;;2.80;1.40;;;31.40;41.80;;;;;;5116050;27;20047;-75
2022/08/11 14:04:11;;;;;;;3.15;1.25;;;31.40;42.80;;;;;;5091990;27;20063;-75
2022/08/11 14:06:49;;;;;;;4.28;1.35;;;31.50;42.30;;;;;;5118005;27;20043;-74
2022/08/11 14:09:20;;;;;;;2.88;1.00;;;31.60;42.00;;;;;;5119180;27;20092;-75
2022/08/11 14:14:34;;;;;;;5.53;1.35;;;31.70;40.90;;;;;;5111697;27;20047;-75
2022/08/11 14:17:08;;;;;;;;;;;31.60;41.00;;;;;;5097973;27;20082;-76
2022/08/11 14:19:43;;;;;;;3.78;1.30;;;31.60;41.80;;;;;;5099275;27;19923;-78
2022/08/11 14:22:12;;;;;;;2.47;1.20;;;31.80;40.40;;;;;;5097521;27;20163;-79
2022/08/11 14:24:40;;;;;;;2.38;1.10;;;31.70;41.20;;;;;;5099224;27;20047;-78
2022/08/11 14:27:11;;;;;;;3.28;1.15;;;31.70;40.40;;;;;;5099257;27;20046;-79
2022/08/11 14:29:40;;;;;;;2.53;1.40;;;31.60;40.20;;;;;;5098755;27;20046;-78
2022/08/11 14:32:10;;;;;;;3.77;1.30;;;31.70;41.30;;;;;;5087439;27;20513;-79
2022/08/11 14:34:41;;;;;;;3.80;1.30;;;31.70;40.40;;;;;;5085775;27;20285;-75
2022/08/11 14:37:14;;;;;;;2.38;1.33;;;31.70;41.00;;;;;;5096804;27;20067;-76
2022/08/11 14:39:56;;;;;;;2.20;1.02;;;31.70;41.70;;;;;;5114439;27;20066;-77
2022/08/11 14:48:06;;;;;;;1.85;1.15;;;31.60;41.10;;;;;;5115124;27;20043;-77
2022/08/11 14:50:33;;;;;;;2.70;1.10;;;31.50;41.20;;;;;;5117475;27;20087;-76
2022/08/11 14:53:03;;;;;;;3.80;1.08;;;31.30;40.70;;;;;;5087739;27;20124;-75
2022/08/11 14:58:22;;;;;;;3.67;1.20;;;31.20;42.20;;;;;;5116403;27;20075;-78
2022/08/11 15:00:53;;;;;;;3.85;1.25;;;31.20;41.70;;;;;;5116466;27;20069;-79
2022/08/11 15:03:21;;;;;;;2.75;1.15;;;31.10;41.70;;;;;;5092786;27;20039;-78
2022/08/11 15:05:52;;;;;;;2.83;1.10;;;31.00;41.80;;;;;;5099257;27;20044;-79
2022/08/11 15:08:19;;;;;;;5.00;1.40;;;31.00;42.10;;;;;;5115247;27;20728;-79
2022/08/11 15:10:48;;;;;;;2.17;1.30;;;31.00;42.60;;;;;;5116386;27;20092;-78
2022/08/11 15:13:17;;;;;;;3.15;1.20;;;31.00;42.50;;;;;;5116207;27;20071;-77
2022/08/11 15:18:28;;;;;;;4.10;1.40;;;30.90;42.50;;;;;;5115886;27;20564;-76
2022/08/11 15:37:46;;;;;;;2.08;1.05;;;30.60;42.90;;;;;;5116124;27;20126;-74
2022/08/11 15:46:32;;;;;;;5.00;1.42;;;30.80;43.10;;;;;;5112323;27;20429;-78
2022/08/11 15:49:22;;;;;;;4.07;1.30;;;30.80;43.10;;;;;;5115280;27;20054;-76
2022/08/11 15:52:08;;;;;;;2.75;1.20;;;30.80;42.80;;;;;;5114543;27;20047;-75
2022/08/11 15:54:38;;;;;;;3.25;1.30;;;30.70;42.70;;;;;;5085338;27;20101;-77
2022/08/11 15:57:08;;;;;;;2.83;1.13;;;30.60;42.60;;;;;;5114581;27;20047;-74
2022/08/11 16:05:13;;;;;;;3.67;1.20;;;30.20;43.80;;;;;;5111289;27;20047;-75
2022/08/11 16:07:41;;;;;;;4.63;1.30;;;30.10;43.90;;;;;;5116727;27;20134;-76
2022/08/11 16:10:25;;;;;;;4.53;1.40;;;29.90;44.90;;;;;;5112182;27;20099;-75
2022/08/11 16:18:24;;;;;;;4.25;1.60;;;29.50;46.20;;;;;;5113504;27;20047;-78
2022/08/11 16:20:54;;;;;;;5.47;1.40;;;29.40;47.00;;;;;;5099170;27;20058;-75
2022/08/11 16:23:27;;;;;;;3.28;1.25;;;29.20;47.20;;;;;;5115346;27;20049;-78
2022/08/11 16:25:55;;;;;;;4.93;1.50;;;29.10;47.60;;;;;;5083889;27;20039;-77
2022/08/11 16:28:26;;;;;;;4.30;1.73;;;29.10;47.90;;;;;;5094966;27;20051;-76
2022/08/11 16:30:53;;;;;;;3.20;1.50;;;29.00;47.90;;;;;;5114512;27;20071;-75
2022/08/11 16:33:23;;;;;;;5.25;1.30;;;28.90;48.10;;;;;;5096225;27;20511;-76
2022/08/11 16:38:38;;;;;;;2.63;1.00;;;28.80;49.50;;;;;;5131460;27;20047;-73
2022/08/11 16:41:14;;;;;;;3.90;1.35;;;28.70;49.40;;;;;;5079753;27;20159;-75
2022/08/11 16:49:25;;;;;;;5.63;1.30;;;28.70;49.90;;;;;;5112962;27;20130;-75
2022/08/11 16:51:51;;;;;;;2.20;1.30;;;28.60;49.80;;;;;;5096522;27;20038;-75
2022/08/11 16:54:18;;;;;;;3.10;1.40;;;28.60;50.10;;;;;;5068328;27;20563;-76
2022/08/11 16:56:52;;;;;;;3.95;1.42;;;28.50;50.90;;;;;;5113972;27;20047;-79
2022/08/11 16:59:34;;;;;;;2.30;1.48;;;28.50;51.90;;;;;;5094823;27;20047;-78
2022/08/11 17:13:07;;;;;;;3.00;1.52;;;28.40;52.50;;;;;;5109549;27;20259;-77
2022/08/11 17:13:56;;;;;;;2.90;1.30;;;28.30;53.10;;;;;;5110787;27;20740;-80
2022/08/11 17:16:32;;;;;;;2.75;1.55;;;28.20;53.20;;;;;;5097523;28;20081;-75
2022/08/11 17:19:17;;;;;;;2.45;1.38;;;28.10;53.60;;;;;;5114404;27;20656;-76
2022/08/11 17:24:40;;;;;;;5.93;2.17;;;28.00;54.70;;;;;;5110363;27;20130;-73
2022/08/11 17:27:15;;;;;;;4.90;1.67;;;28.00;55.30;;;;;;5115352;27;20716;-73
2022/08/11 17:29:50;;;;;;;4.85;1.70;;;27.90;55.70;;;;;;5086336;28;20043;-75
2022/08/11 17:35:32;;;;;;;5.57;1.58;;;27.80;56.30;;;;;;5108926;28;20072;-76
2022/08/11 17:38:04;;;;;;;3.25;1.63;;;27.70;56.90;;;;;;5091512;28;21646;-74
2022/08/11 17:40:35;;;;;;;2.55;1.40;;;27.60;57.70;;;;;;5096079;28;20505;-74
2022/08/11 17:48:34;;;;;;;3.63;1.60;;;27.50;58.80;;;;;;5108155;28;20138;-74
2022/08/11 17:51:07;;;;;;;4.00;2.08;;;27.40;59.20;;;;;;5111419;28;20121;-77
2022/08/11 18:04:51;;;;;;;3.63;1.60;;;27.00;62.00;;;;;;5108450;28;20043;-75
